Time;durP1;ratioP1;P1;durP2;ratioP2;P2;SDS_P1;SDS_P2;PMS_P1;PMS_P2;Temp;Humidity;BMP_temperature;BMP_pressure;BME280_temperature;BME280_humidity;BME280_pressure;Samples;Min_cycle;Max_cycle;Signal;HPM_P1;HPM_P2
2022/05/05 00:02:04;;;;;;;3.00;2.80;;;;;;;10.74;100.00;96017.81;5015888;28;20026;-60
2022/05/05 00:04:29;;;;;;;2.83;2.70;;;;;;;10.75;100.00;96013.41;5018638;28;20029;-59
2022/05/05 00:06:55;;;;;;;2.60;2.40;;;;;;;10.71;100.00;96014.63;5018144;28;20495;-60
2022/05/05 00:09:20;;;;;;;2.60;2.40;;;;;;;10.72;100.00;96013.66;5020556;28;20025;-60
2022/05/05 00:14:32;;;;;;;2.40;2.30;;;;;;;10.74;100.00;96006.47;5019875;28;20089;-60
2022/05/05 00:17:02;;;;;;;2.60;2.50;;;;;;;10.72;100.00;96003.13;5023729;28;20029;-60
2022/05/05 00:19:29;;;;;;;2.70;2.60;;;;;;;10.67;100.00;96008.81;5020340;28;20032;-60
2022/05/05 00:21:55;;;;;;;2.80;2.65;;;;;;;10.65;100.00;95999.38;5017971;28;20404;-59
2022/05/05 00:24:22;;;;;;;2.60;2.50;;;;;;;10.66;100.00;95993.97;5016245;28;20026;-60
2022/05/05 00:26:47;;;;;;;6.43;2.50;;;;;;;10.73;100.00;95995.09;5017885;28;20034;-61
2022/05/05 00:29:13;;;;;;;2.50;2.30;;;;;;;10.67;100.00;95989.53;5020289;28;20042;-59
2022/05/05 00:31:38;;;;;;;3.28;2.42;;;;;;;10.66;100.00;95993.97;5023080;28;20021;-60
2022/05/05 00:34:04;;;;;;;2.53;2.38;;;;;;;10.69;100.00;95982.31;5018713;28;20033;-60
2022/05/05 00:36:29;;;;;;;2.30;2.20;;;;;;;10.73;100.00;95996.91;5015959;28;20553;-60
2022/05/05 00:38:55;;;;;;;4.88;2.55;;;;;;;10.73;100.00;95989.00;5022665;28;20098;-60
2022/05/05 00:41:21;;;;;;;3.30;2.30;;;;;;;10.71;100.00;95986.50;5014612;28;20144;-60
2022/05/05 00:43:47;;;;;;;2.40;2.20;;;;;;;10.68;100.00;95976.25;5016694;28;20033;-60
2022/05/05 00:46:12;;;;;;;2.15;2.05;;;;;;;10.64;100.00;95985.38;5021339;28;20035;-60
2022/05/05 00:48:38;;;;;;;2.60;2.50;;;;;;;10.65;100.00;95984.41;5021064;28;20033;-60
2022/05/05 00:51:03;;;;;;;7.90;2.30;;;;;;;10.60;100.00;95974.28;5022835;28;20470;-60
2022/05/05 00:53:28;;;;;;;2.10;2.00;;;;;;;10.62;100.00;95981.22;5021870;28;20029;-60
2022/05/05 00:55:56;;;;;;;2.10;2.00;;;;;;;10.58;100.00;95976.22;5023806;28;20022;-60
2022/05/05 00:58:25;;;;;;;1.92;1.83;;;;;;;10.57;100.00;95969.28;5021577;28;20049;-60
2022/05/05 01:00:50;;;;;;;3.45;1.98;;;;;;;10.56;100.00;95977.31;5022412;28;20108;-60
2022/05/05 01:03:16;;;;;;;3.97;2.30;;;;;;;10.55;100.00;95980.91;5024911;28;20037;-60
2022/05/05 01:05:42;;;;;;;2.60;2.40;;;;;;;10.55;100.00;95968.59;5022377;28;20428;-60
2022/05/05 01:08:08;;;;;;;2.33;2.17;;;;;;;10.65;100.00;95968.63;5025280;28;20059;-60
2022/05/05 01:10:34;;;;;;;2.08;2.03;;;;;;;10.64;100.00;95966.09;5022498;28;20022;-60
2022/05/05 01:13:01;;;;;;;3.33;2.22;;;;;;;10.66;100.00;95964.16;5027197;28;20021;-60
2022/05/05 01:15:28;;;;;;;2.10;2.00;;;;;;;10.64;100.00;95963.47;5025423;28;20034;-60
2022/05/05 01:17:53;;;;;;;3.80;2.17;;;;;;;10.65;100.00;95959.88;5022241;28;20459;-60
2022/05/05 01:20:22;;;;;;;2.13;2.03;;;;;;;10.70;100.00;95955.88;5019578;28;20033;-60
2022/05/05 01:22:48;;;;;;;1.88;1.88;;;;;;;10.81;100.00;95949.66;5017512;28;20057;-60
2022/05/05 01:28:14;;;;;;;2.30;2.20;;;;;;;10.69;100.00;95951.56;5019986;28;20542;-59
2022/05/05 01:30:45;;;;;;;4.55;2.20;;;;;;;10.54;100.00;95958.19;5024132;28;20034;-59
2022/05/05 01:33:20;;;;;;;3.47;2.00;;;;;;;10.49;100.00;95957.75;5017203;28;20025;-60
2022/05/05 01:35:47;;;;;;;2.40;2.30;;;;;;;10.54;100.00;95952.91;5023341;28;20030;-60
2022/05/05 01:38:15;;;;;;;2.38;2.20;;;;;;;10.64;100.00;95942.41;5020909;28;20151;-60
2022/05/05 01:40:41;;;;;;;2.30;2.20;;;;;;;10.58;100.00;95949.88;5026468;28;20037;-59
2022/05/05 01:43:07;;;;;;;2.72;2.53;;;;;;;10.47;100.00;95944.72;5023171;28;20071;-60
2022/05/05 01:45:33;;;;;;;2.58;2.38;;;;;;;10.41;100.00;95945.28;5018980;28;21789;-59
2022/05/05 01:47:59;;;;;;;3.17;2.70;;;;;;;10.33;100.00;95938.00;5020455;28;20026;-60
2022/05/05 01:50:25;;;;;;;2.50;2.40;;;;;;;10.33;100.00;95940.66;5024243;28;20026;-60
2022/05/05 01:52:52;;;;;;;2.58;2.38;;;;;;;10.38;100.00;95942.88;5024251;28;20025;-60
2022/05/05 01:55:17;;;;;;;2.85;2.65;;;;;;;10.37;100.00;95939.41;5021739;28;20662;-60
2022/05/05 01:57:43;;;;;;;2.75;2.55;;;;;;;10.34;100.00;95947.56;5023013;28;20069;-60
2022/05/05 02:00:09;;;;;;;2.65;2.45;;;;;;;10.34;100.00;95939.69;5022694;28;20567;-60
2022/05/05 02:02:34;;;;;;;2.58;2.47;;;;;;;10.37;100.00;95946.47;5022508;28;20144;-60
2022/05/05 02:05:00;;;;;;;2.38;2.25;;;;;;;10.39;100.00;95939.28;5021948;28;20136;-60
2022/05/05 02:07:25;;;;;;;2.38;2.28;;;;;;;10.44;100.00;95943.22;5023831;28;20075;-60
2022/05/05 02:09:50;;;;;;;2.60;2.40;;;;;;;10.50;100.00;95939.22;5030705;28;20022;-60
2022/05/05 02:12:16;;;;;;;2.72;2.50;;;;;;;10.48;100.00;95943.75;5025992;28;20108;-60
2022/05/05 02:14:41;;;;;;;2.70;2.50;;;;;;;10.43;100.00;95932.81;5019249;28;20124;-60
2022/05/05 02:17:06;;;;;;;2.40;2.30;;;;;;;10.47;100.00;95939.47;5020616;28;20032;-60
2022/05/05 02:19:32;;;;;;;2.13;2.03;;;;;;;10.45;100.00;95931.72;5023181;28;20061;-61
2022/05/05 02:21:58;;;;;;;2.20;2.10;;;;;;;10.47;100.00;95936.81;5018165;28;20484;-61
2022/05/05 02:24:23;;;;;;;2.60;2.50;;;;;;;10.44;100.00;95931.84;5024386;28;20053;-61
2022/05/05 02:26:49;;;;;;;2.58;2.22;;;;;;;10.39;100.00;95931.38;5021592;28;20104;-60
2022/05/05 02:29:14;;;;;;;2.50;2.40;;;;;;;10.36;100.00;95929.03;5018669;28;20129;-61
2022/05/05 02:31:40;;;;;;;2.42;2.25;;;;;;;10.49;100.00;95926.19;5019953;28;20029;-60
2022/05/05 02:34:08;;;;;;;5.20;2.30;;;;;;;10.57;100.00;95916.63;5023827;28;20027;-60
2022/05/05 02:39:21;;;;;;;3.63;2.40;;;;;;;10.50;100.00;95920.78;5023781;28;20055;-61
2022/05/05 02:41:46;;;;;;;2.45;2.35;;;;;;;10.47;100.00;95921.03;5024207;28;20925;-60
2022/05/05 02:44:12;;;;;;;3.90;2.60;;;;;;;10.43;100.00;95922.28;5020669;28;20515;-60
2022/05/05 02:46:37;;;;;;;2.78;2.38;;;;;;;10.42;100.00;95913.56;5021604;28;20108;-60
2022/05/05 02:49:02;;;;;;;2.40;2.30;;;;;;;10.38;100.00;95922.66;5020024;28;20091;-60
2022/05/05 02:51:28;;;;;;;2.63;2.53;;;;;;;10.31;100.00;95917.09;5019557;28;20029;-61
2022/05/05 02:56:37;;;;;;;4.82;2.67;;;;;;;10.26;100.00;95916.66;5017189;28;20056;-60
2022/05/05 02:59:03;;;;;;;2.45;2.28;;;;;;;10.32;100.00;95920.56;5017519;28;20503;-61
2022/05/05 03:01:28;;;;;;;2.67;2.58;;;;;;;10.36;100.00;95921.94;5021633;28;20033;-61
2022/05/05 03:03:53;;;;;;;4.80;2.50;;;;;;;10.38;100.00;95916.56;5020916;28;20029;-60
2022/05/05 03:06:19;;;;;;;2.92;2.72;;;;;;;10.36;100.00;95914.06;5026491;28;20025;-60
2022/05/05 03:08:45;;;;;;;2.50;2.40;;;;;;;10.30;100.00;95909.34;5020523;28;20025;-60
2022/05/05 03:11:10;;;;;;;2.40;2.30;;;;;;;10.28;100.00;95913.91;5019010;28;20504;-60
2022/05/05 03:13:36;;;;;;;2.95;2.40;;;;;;;10.30;100.00;95911.97;5023465;28;20049;-60
2022/05/05 03:16:03;;;;;;;2.75;2.38;;;;;;;10.34;100.00;95913.34;5021659;28;20029;-60
2022/05/05 03:18:28;;;;;;;2.60;2.50;;;;;;;10.31;100.00;95901.31;5026792;28;20027;-61
2022/05/05 03:20:53;;;;;;;2.67;2.47;;;;;;;10.32;100.00;95908.25;5015873;28;20026;-60
2022/05/05 03:23:19;;;;;;;2.65;2.53;;;;;;;10.35;100.00;95898.41;5020947;28;20021;-61
2022/05/05 03:25:44;;;;;;;2.63;2.35;;;;;;;10.34;100.00;95899.38;5022806;28;20022;-60
2022/05/05 03:28:09;;;;;;;2.97;2.80;;;;;;;10.35;100.00;95896.59;5018220;28;20392;-61
2022/05/05 03:30:35;;;;;;;2.70;2.50;;;;;;;10.37;100.00;95896.47;5024102;28;20025;-61
2022/05/05 03:33:00;;;;;;;2.60;2.50;;;;;;;10.35;100.00;95895.78;5019629;28;20619;-61
2022/05/05 03:35:25;;;;;;;5.05;2.75;;;;;;;10.29;100.00;95903.25;5021651;28;20080;-61
2022/05/05 03:37:51;;;;;;;2.90;2.60;;;;;;;10.23;100.00;95895.88;5015030;28;20041;-60
2022/05/05 03:40:17;;;;;;;2.90;2.80;;;;;;;10.27;100.00;95894.63;5021498;28;20028;-61
2022/05/05 03:42:43;;;;;;;2.55;2.35;;;;;;;10.26;100.00;95892.97;5020856;28;20022;-61
2022/05/05 03:45:08;;;;;;;3.00;2.80;;;;;;;10.25;100.00;95890.50;5021960;28;20535;-61
2022/05/05 03:47:34;;;;;;;2.90;2.70;;;;;;;10.25;100.00;95883.41;5018537;28;20026;-60
2022/05/05 03:49:59;;;;;;;2.60;2.50;;;;;;;10.30;100.00;95889.13;5018415;28;20032;-60
2022/05/05 03:52:25;;;;;;;4.80;2.42;;;;;;;10.30;100.00;95885.66;5024055;28;20573;-60
2022/05/05 03:54:50;;;;;;;3.22;2.70;;;;;;;10.29;100.00;95887.47;5022088;28;20430;-61
2022/05/05 03:57:16;;;;;;;2.53;2.35;;;;;;;10.28;100.00;95888.44;5015808;28;20067;-61
2022/05/05 03:59:41;;;;;;;2.90;2.70;;;;;;;10.28;100.00;95896.34;5023573;28;20042;-61
2022/05/05 04:02:06;;;;;;;2.67;2.45;;;;;;;10.26;100.00;95895.59;5021779;28;20084;-61
2022/05/05 04:04:32;;;;;;;3.38;3.03;;;;;;;10.26;100.00;95892.97;5016455;28;20044;-61
2022/05/05 04:06:57;;;;;;;2.75;2.50;;;;;;;10.18;100.00;95885.78;5021535;28;20046;-61
2022/05/05 04:09:22;;;;;;;2.40;2.30;;;;;;;10.19;100.00;95899.75;5027292;28;20037;-61
2022/05/05 04:11:48;;;;;;;2.92;2.47;;;;;;;10.21;100.00;95894.38;5015493;28;20117;-61
2022/05/05 04:14:13;;;;;;;2.40;2.30;;;;;;;10.26;100.00;95898.25;5023255;28;20053;-61
2022/05/05 04:16:39;;;;;;;3.10;2.90;;;;;;;10.22;100.00;95901.28;5020770;28;20120;-61
2022/05/05 04:19:04;;;;;;;2.80;2.60;;;;;;;10.22;100.00;95896.03;5015861;28;20076;-60
2022/05/05 04:21:31;;;;;;;2.67;2.45;;;;;;;10.24;100.00;95897.53;5024908;28;20131;-61
2022/05/05 04:23:57;;;;;;;2.72;2.60;;;;;;;10.24;100.00;95899.34;5028221;28;20100;-60
2022/05/05 04:26:24;;;;;;;2.88;2.67;;;;;;;10.23;100.00;95903.78;5019554;28;20025;-61
2022/05/05 04:28:51;;;;;;;3.28;2.88;;;;;;;10.17;100.00;95909.59;5011759;28;20029;-61
2022/05/05 04:31:18;;;;;;;2.60;2.40;;;;;;;10.16;100.00;95902.66;5018964;28;20128;-60
2022/05/05 04:33:44;;;;;;;2.80;2.60;;;;;;;10.13;100.00;95900.31;5023470;28;20479;-60
2022/05/05 04:36:11;;;;;;;2.53;2.42;;;;;;;10.17;100.00;95909.59;5023657;28;20053;-61
2022/05/05 04:38:36;;;;;;;2.70;2.60;;;;;;;10.28;100.00;95913.91;5025752;28;20036;-60
2022/05/05 04:41:03;;;;;;;2.50;2.40;;;;;;;10.29;100.00;95913.78;5022063;28;20484;-61
2022/05/05 04:43:29;;;;;;;2.50;2.40;;;;;;;10.21;100.00;95913.59;5022186;28;20091;-61
2022/05/05 04:45:54;;;;;;;2.97;2.78;;;;;;;10.20;100.00;95914.56;5024563;28;20052;-61
2022/05/05 04:48:19;;;;;;;2.85;2.65;;;;;;;10.21;100.00;95921.50;5020690;28;20053;-60
2022/05/05 04:50:45;;;;;;;2.50;2.40;;;;;;;10.20;100.00;95917.19;5018780;28;20038;-61
2022/05/05 04:53:10;;;;;;;2.58;2.47;;;;;;;10.19;100.00;95923.44;5025271;28;20366;-60
2022/05/05 04:55:35;;;;;;;2.72;2.53;;;;;;;10.15;100.00;95932.56;5026327;28;20614;-61
2022/05/05 04:58:01;;;;;;;3.10;2.80;;;;;;;10.17;100.00;95923.59;5019382;28;20026;-61
2022/05/05 05:00:27;;;;;;;3.28;2.63;;;;;;;10.18;100.00;95924.41;5020200;28;20033;-60
2022/05/05 05:02:52;;;;;;;3.13;3.00;;;;;;;10.22;100.00;95930.25;5016665;28;20041;-60
2022/05/05 05:05:17;;;;;;;3.15;2.95;;;;;;;10.23;100.00;95937.16;5031922;28;20409;-60
2022/05/05 05:07:43;;;;;;;3.03;2.92;;;;;;;10.19;100.00;95933.97;5022913;28;20022;-61
2022/05/05 05:10:09;;;;;;;3.05;2.85;;;;;;;10.21;100.00;95936.47;5028251;28;20401;-60
2022/05/05 05:12:34;;;;;;;4.50;3.22;;;;;;;10.21;100.00;95939.09;5029716;28;20026;-61
2022/05/05 05:15:00;;;;;;;3.20;3.00;;;;;;;10.18;100.00;95948.09;5026274;28;20017;-61
2022/05/05 05:17:25;;;;;;;2.92;2.83;;;;;;;10.17;100.00;95944.63;5019064;28;20030;-59
2022/05/05 05:19:51;;;;;;;3.03;2.65;;;;;;;10.19;100.00;95939.22;5022032;28;20028;-60
2022/05/05 05:22:16;;;;;;;2.55;2.45;;;;;;;10.16;100.00;95944.75;5024146;28;20033;-60
2022/05/05 05:24:42;;;;;;;4.03;2.72;;;;;;;10.15;100.00;95950.97;5020491;28;20036;-60
2022/05/05 05:27:07;;;;;;;2.97;2.78;;;;;;;10.17;100.00;95952.53;5024671;28;20026;-60
2022/05/05 05:29:33;;;;;;;5.55;3.15;;;;;;;10.22;100.00;95951.28;5016937;28;20033;-60
2022/05/05 05:31:58;;;;;;;3.10;2.90;;;;;;;10.21;100.00;95952.25;5013776;28;20091;-60
2022/05/05 05:34:24;;;;;;;3.13;2.88;;;;;;;10.13;100.00;95960.81;5015012;28;20029;-59
2022/05/05 05:36:49;;;;;;;3.20;3.00;;;;;;;10.11;100.00;95965.38;5021910;28;20550;-60
2022/05/05 05:39:17;;;;;;;3.10;2.90;;;;;;;10.11;100.00;95960.13;5028791;28;20141;-59
2022/05/05 05:41:42;;;;;;;3.33;3.10;;;;;;;10.09;100.00;95960.22;5026283;28;20040;-60
2022/05/05 05:44:08;;;;;;;4.47;3.92;;;;;;;10.14;100.00;95962.47;5027454;28;20025;-60
2022/05/05 05:46:33;;;;;;;3.58;3.28;;;;;;;10.18;100.00;95958.59;5015083;28;20461;-60
2022/05/05 05:48:58;;;;;;;3.40;3.20;;;;;;;10.23;100.00;95966.09;5020728;28;20315;-59
2022/05/05 05:51:24;;;;;;;3.00;2.80;;;;;;;10.24;100.00;95965.97;5025973;28;20064;-60
2022/05/05 05:53:50;;;;;;;8.02;3.50;;;;;;;10.23;100.00;95964.28;5022359;28;20810;-59
2022/05/05 05:56:16;;;;;;;3.83;3.50;;;;;;;10.26;100.00;95964.03;5023765;28;20057;-60
2022/05/05 05:58:41;;;;;;;3.88;3.58;;;;;;;10.27;100.00;95968.31;5019101;28;20078;-59
2022/05/05 06:01:07;;;;;;;3.65;3.33;;;;;;;10.30;100.00;95972.50;5023966;28;20044;-59
2022/05/05 06:06:17;;;;;;;3.40;3.20;;;;;;;10.25;100.00;95978.16;5027857;28;20033;-59
2022/05/05 06:08:43;;;;;;;4.68;2.95;;;;;;;10.26;100.00;95981.63;5024168;28;20087;-59
2022/05/05 06:11:11;;;;;;;2.70;2.60;;;;;;;10.27;100.00;95973.59;5025013;28;20029;-59
2022/05/05 06:13:36;;;;;;;3.20;3.00;;;;;;;10.27;100.00;95978.03;5023458;28;20034;-59
2022/05/05 06:16:02;;;;;;;2.97;2.88;;;;;;;10.28;100.00;95974.44;5021873;28;20079;-59
2022/05/05 06:18:27;;;;;;;3.70;3.40;;;;;;;10.28;100.00;95970.00;5026940;28;20041;-59
2022/05/05 06:20:53;;;;;;;3.00;2.90;;;;;;;10.28;100.00;95972.66;5016640;28;20033;-59
2022/05/05 06:23:18;;;;;;;3.40;3.25;;;;;;;10.25;100.00;95974.69;5015604;28;20033;-59
2022/05/05 06:25:44;;;;;;;4.13;3.83;;;;;;;10.24;100.00;95975.66;5023876;28;20029;-59
2022/05/05 06:28:09;;;;;;;3.42;3.22;;;;;;;10.23;100.00;95984.53;5018714;28;20378;-59
2022/05/05 06:30:35;;;;;;;2.90;2.80;;;;;;;10.24;100.00;95988.81;5021172;28;20026;-59
2022/05/05 06:33:00;;;;;;;3.10;2.90;;;;;;;10.22;100.00;95991.56;5014620;28;20029;-59
2022/05/05 06:35:25;;;;;;;3.33;3.13;;;;;;;10.27;100.00;95989.38;5021168;28;20404;-59
2022/05/05 06:37:51;;;;;;;3.20;3.00;;;;;;;10.31;100.00;95982.06;5027174;28;20065;-59
2022/05/05 06:40:17;;;;;;;3.20;3.00;;;;;;;10.31;100.00;95996.06;5029554;28;20061;-59
2022/05/05 06:42:42;;;;;;;3.67;3.47;;;;;;;10.34;100.00;95989.69;5021241;28;20037;-60
2022/05/05 06:45:08;;;;;;;3.22;3.08;;;;;;;10.37;100.00;95996.50;5023155;28;20022;-59
2022/05/05 06:47:34;;;;;;;3.28;3.08;;;;;;;10.33;100.00;95995.91;5020169;28;20053;-59
2022/05/05 06:49:59;;;;;;;3.00;2.80;;;;;;;10.33;100.00;95993.28;5021571;28;20408;-59
2022/05/05 06:52:24;;;;;;;2.53;2.33;;;;;;;10.33;100.00;95990.66;5023866;28;20044;-59
2022/05/05 06:54:50;;;;;;;3.10;2.90;;;;;;;10.35;100.00;95995.78;5019784;28;20053;-59
2022/05/05 06:57:15;;;;;;;3.40;3.20;;;;;;;10.44;100.00;95992.38;5023784;28;20076;-60
2022/05/05 06:59:40;;;;;;;5.38;4.20;;;;;;;10.45;100.00;96000.16;5019449;28;20037;-59
2022/05/05 07:02:06;;;;;;;4.43;3.95;;;;;;;10.43;100.00;96003.88;5024203;28;20077;-59
2022/05/05 07:07:19;;;;;;;3.97;3.55;;;;;;;10.60;100.00;96007.66;5022408;28;20426;-59
2022/05/05 07:12:30;;;;;;;;;;;;;;;10.54;100.00;96016.09;5017560;28;20122;-60
2022/05/05 07:14:56;;;;;;;3.28;2.97;;;;;;;10.51;100.00;96008.47;5022365;28;19964;-59
2022/05/05 07:17:23;;;;;;;5.38;3.13;;;;;;;10.55;100.00;96013.34;5026396;28;20029;-59
2022/05/05 07:19:49;;;;;;;3.72;3.30;;;;;;;10.55;100.00;96004.59;5016858;28;20567;-59
2022/05/05 07:22:14;;;;;;;3.95;3.60;;;;;;;10.48;100.00;96014.00;5015814;28;20045;-59
2022/05/05 07:24:40;;;;;;;3.83;3.53;;;;;;;10.40;100.00;96012.00;5021576;28;20100;-59
2022/05/05 07:27:05;;;;;;;3.60;3.38;;;;;;;10.39;100.00;96015.59;5021729;28;20024;-59
2022/05/05 07:29:32;;;;;;;2.95;2.80;;;;;;;10.37;100.00;96014.91;5017333;28;20030;-59
2022/05/05 07:31:59;;;;;;;2.17;2.08;;;;;;;10.30;100.00;96025.97;5018219;28;20078;-59
2022/05/05 07:34:24;;;;;;;3.38;2.25;;;;;;;10.22;100.00;96022.34;5025198;28;20025;-59
2022/05/05 07:36:50;;;;;;;2.40;2.20;;;;;;;10.23;100.00;96024.81;5021519;28;20033;-59
2022/05/05 07:39:16;;;;;;;6.75;6.07;;;;;;;10.19;100.00;96031.31;5020179;28;20489;-59
2022/05/05 07:41:42;;;;;;;6.93;5.40;;;;;;;10.38;100.00;96032.38;5025162;28;20029;-59
2022/05/05 07:44:08;;;;;;;4.63;4.22;;;;;;;10.30;100.00;96041.75;5021586;28;20052;-59
2022/05/05 07:46:34;;;;;;;4.28;4.07;;;;;;;10.57;100.00;96050.91;5021578;28;20030;-59
2022/05/05 07:49:01;;;;;;;4.13;3.72;;;;;;;10.52;100.00;96058.38;5016945;28;20049;-59
2022/05/05 07:51:28;;;;;;;3.88;3.58;;;;;;;10.35;100.00;96064.22;5024073;28;20029;-59
2022/05/05 07:56:37;;;;;;;5.22;3.80;;;;;;;10.17;100.00;96067.44;5021941;28;20511;-59
2022/05/05 07:59:02;;;;;;;5.70;5.20;;;;;;;10.11;100.00;96063.53;5016755;28;20049;-59
2022/05/05 08:01:28;;;;;;;8.93;2.90;;;;;;;10.06;100.00;96067.50;5011877;28;20057;-59
2022/05/05 08:03:54;;;;;;;3.45;2.15;;;;;;;9.93;100.00;96075.59;5017959;28;20034;-60
2022/05/05 08:06:20;;;;;;;3.78;2.75;;;;;;;9.95;100.00;96090.28;5027412;28;20083;-59
2022/05/05 08:08:45;;;;;;;3.65;3.17;;;;;;;10.02;100.00;96095.88;5023626;28;20489;-59
2022/05/05 08:11:10;;;;;;;4.00;2.78;;;;;;;9.99;100.00;96106.66;5028010;28;20087;-59
2022/05/05 08:13:36;;;;;;;2.05;1.92;;;;;;;9.91;100.00;96104.66;5030128;28;20025;-59
2022/05/05 08:16:01;;;;;;;2.03;1.63;;;;;;;9.78;100.00;96104.84;5018387;28;20026;-59
2022/05/05 08:18:27;;;;;;;2.15;1.95;;;;;;;9.67;100.00;96100.47;5019974;28;20037;-59
2022/05/05 08:20:53;;;;;;;2.83;2.00;;;;;;;9.55;100.00;96106.72;5027764;28;20029;-59
2022/05/05 08:23:19;;;;;;;1.85;1.75;;;;;;;9.56;100.00;96103.16;5018765;28;20076;-60
2022/05/05 08:28:28;;;;;;;2.28;2.08;;;;;;;9.72;100.00;96111.44;5023708;28;20451;-59
2022/05/05 08:30:57;;;;;;;2.05;1.95;;;;;;;9.70;100.00;96118.63;5027333;28;20029;-59
2022/05/05 08:33:27;;;;;;;1.70;1.60;;;;;;;9.71;100.00;96109.78;5017195;28;20068;-59
2022/05/05 08:35:58;;;;;;;2.83;1.92;;;;;;;9.66;100.00;96114.59;5027695;28;20512;-59
2022/05/05 08:38:24;;;;;;;3.13;2.13;;;;;;;9.57;100.00;96116.19;5018478;28;20112;-59
2022/05/05 08:40:50;;;;;;;1.95;1.70;;;;;;;9.51;100.00;96123.72;5026466;28;20029;-59
2022/05/05 08:43:16;;;;;;;3.20;1.60;;;;;;;9.38;100.00;96123.88;5024170;28;20105;-59
2022/05/05 08:45:45;;;;;;;1.73;1.48;;;;;;;9.41;100.00;96113.97;5020726;28;20042;-59
2022/05/05 08:48:12;;;;;;;2.92;1.80;;;;;;;9.52;100.00;96120.97;5018224;28;20477;-59
2022/05/05 08:50:44;;;;;;;4.15;1.52;;;;;;;9.61;100.00;96114.09;5029292;28;20504;-59
2022/05/05 08:53:14;;;;;;;4.10;1.40;;;;;;;9.63;100.00;96120.09;5024458;28;20073;-59
2022/05/05 08:55:40;;;;;;;1.50;1.40;;;;;;;9.72;100.00;96116.72;5020538;28;20026;-59
2022/05/05 08:58:05;;;;;;;1.58;1.48;;;;;;;9.83;100.00;96115.81;5017117;28;20165;-59
2022/05/05 09:00:31;;;;;;;2.25;1.50;;;;;;;9.94;100.00;96119.34;5029684;28;20465;-59
2022/05/05 09:03:00;;;;;;;1.50;1.50;;;;;;;9.95;100.00;96116.59;5024516;28;20025;-59
2022/05/05 09:05:43;;;;;;;4.57;1.58;;;;;;;9.96;100.00;96115.63;5019140;28;20040;-59
2022/05/05 09:08:27;;;;;;;1.98;1.88;;;;;;;9.90;100.00;96113.53;5019578;28;20034;-60
2022/05/05 09:10:54;;;;;;;3.55;1.73;;;;;;;9.91;100.00;96122.22;5026379;28;20401;-59
2022/05/05 09:13:24;;;;;;;1.63;1.55;;;;;;;9.92;100.00;96127.38;5025167;28;20037;-60
2022/05/05 09:15:49;;;;;;;1.23;1.13;;;;;;;9.95;100.00;96127.13;5018880;28;20109;-60
2022/05/05 09:18:22;;;;;;;1.52;1.40;;;;;;;10.02;100.00;96125.63;5017356;28;20121;-59
2022/05/05 09:20:49;;;;;;;2.67;1.73;;;;;;;10.01;100.00;96129.22;5028570;28;20059;-59
2022/05/05 09:23:34;;;;;;;5.03;1.92;;;;;;;10.01;100.00;96126.59;5025298;28;20497;-59
2022/05/05 09:26:01;;;;;;;1.50;1.40;;;;;;;10.04;100.00;96128.97;5021207;28;20037;-60
2022/05/05 09:28:32;;;;;;;1.65;1.50;;;;;;;10.15;100.00;96132.53;5019359;28;20030;-60
2022/05/05 09:31:10;;;;;;;1.50;1.40;;;;;;;10.17;100.00;96133.22;5028741;28;20516;-59
2022/05/05 09:33:41;;;;;;;1.40;1.30;;;;;;;10.16;100.00;96131.56;5024183;28;20037;-59
2022/05/05 09:36:07;;;;;;;1.20;1.20;;;;;;;10.09;100.00;96133.84;5016653;28;20026;-60
2022/05/05 09:38:56;;;;;;;4.50;1.33;;;;;;;10.00;100.00;96139.91;5016964;28;20040;-59
2022/05/05 09:41:24;;;;;;;1.60;1.23;;;;;;;10.02;100.00;96135.34;5027199;28;20377;-59
2022/05/05 09:43:50;;;;;;;6.97;3.00;;;;;;;10.11;100.00;96139.81;5027748;28;20064;-60
2022/05/05 09:46:25;;;;;;;2.38;1.73;;;;;;;10.17;100.00;96141.97;5016850;28;20046;-59
2022/05/05 09:49:03;;;;;;;1.27;1.20;;;;;;;10.09;100.00;96140.94;5020576;28;20064;-59
2022/05/05 09:51:29;;;;;;;1.35;1.23;;;;;;;10.10;100.00;96143.41;5019020;28;20509;-59
2022/05/05 09:59:40;;;;;;;1.30;1.30;;;;;;;10.16;100.00;96149.97;5027389;28;20582;-59
2022/05/05 10:02:15;;;;;;;1.27;1.27;;;;;;;10.25;100.00;96145.75;5022336;28;20387;-60
2022/05/05 10:04:48;;;;;;;1.10;1.10;;;;;;;10.26;99.07;96144.78;5027321;28;20144;-59
2022/05/05 10:07:15;;;;;;;1.15;0.98;;;;;;;10.24;98.21;96152.78;5023087;28;20037;-59
2022/05/05 10:09:43;;;;;;;0.98;0.98;;;;;;;10.12;98.19;96148.56;5028827;28;20022;-59
2022/05/05 10:12:09;;;;;;;0.85;0.85;;;;;;;10.27;98.32;96147.25;5016845;28;20025;-60
2022/05/05 10:14:35;;;;;;;0.93;0.80;;;;;;;10.45;95.59;96144.06;5025194;28;20022;-59
2022/05/05 10:17:02;;;;;;;0.90;0.90;;;;;;;10.31;96.55;96146.06;5024393;28;20032;-59
2022/05/05 10:19:27;;;;;;;1.35;1.10;;;;;;;10.34;97.34;96147.59;5019060;28;20083;-59
2022/05/05 10:21:56;;;;;;;0.90;0.90;;;;;;;10.35;95.94;96144.00;5021689;28;20505;-59
2022/05/05 10:24:28;;;;;;;1.33;1.13;;;;;;;10.45;97.72;96146.72;5022880;28;20037;-60
2022/05/05 10:26:56;;;;;;;1.15;1.10;;;;;;;10.51;97.44;96148.00;5018347;28;20401;-59
2022/05/05 10:29:42;;;;;;;2.38;1.00;;;;;;;10.82;95.52;96142.72;5022477;28;20416;-60
2022/05/05 10:32:16;;;;;;;1.02;1.02;;;;;;;10.88;94.12;96139.59;5022866;28;20041;-60
2022/05/05 10:34:45;;;;;;;1.17;1.10;;;;;;;10.96;93.98;96139.75;5018693;28;21090;-59
2022/05/05 10:37:12;;;;;;;2.40;1.45;;;;;;;10.85;94.18;96145.13;5022484;28;20021;-59
2022/05/05 10:39:50;;;;;;;1.20;1.20;;;;;;;10.78;92.94;96146.59;5022609;28;20026;-59
2022/05/05 10:42:38;;;;;;;1.10;1.10;;;;;;;10.75;94.42;96143.25;5016064;28;20416;-59
2022/05/05 10:45:10;;;;;;;1.42;1.30;;;;;;;10.72;93.43;96140.91;5028414;28;20021;-59
2022/05/05 10:47:55;;;;;;;0.95;0.90;;;;;;;10.65;96.16;96139.75;5018674;28;20071;-59
2022/05/05 10:50:49;;;;;;;0.80;0.80;;;;;;;10.85;94.35;96139.84;5022970;28;20017;-59
2022/05/05 10:53:39;;;;;;;0.93;0.93;;;;;;;11.14;93.27;96134.66;5019870;28;20076;-59
2022/05/05 10:56:25;;;;;;;1.10;1.10;;;;;;;11.15;93.27;96141.59;5017200;28;20113;-59
2022/05/05 10:59:08;;;;;;;3.20;1.40;;;;;;;10.96;94.20;96138.94;5020013;28;20057;-59
2022/05/05 11:01:45;;;;;;;1.35;1.23;;;;;;;11.00;94.57;96132.41;5020654;28;20424;-59
2022/05/05 11:04:20;;;;;;;0.95;0.95;;;;;;;10.88;95.19;96131.69;5015429;28;20037;-59
2022/05/05 11:06:49;;;;;;;1.08;1.08;;;;;;;11.13;94.38;96134.81;5020612;28;20033;-59
2022/05/05 11:09:29;;;;;;;1.75;1.35;;;;;;;11.04;94.89;96128.53;5014470;28;20030;-59
2022/05/05 11:12:16;;;;;;;1.95;1.30;;;;;;;11.07;94.87;96123.00;5023538;28;20030;-60
2022/05/05 11:23:44;;;;;;;0.90;0.90;;;;;;;11.38;91.58;96125.56;5023896;28;20041;-59
2022/05/05 11:26:10;;;;;;;0.90;0.90;;;;;;;11.32;91.94;96120.84;5016761;28;20026;-59
2022/05/05 11:28:36;;;;;;;1.00;1.00;;;;;;;11.30;92.03;96120.97;5017650;28;20025;-59
2022/05/05 11:31:03;;;;;;;2.33;1.17;;;;;;;11.21;92.64;96119.16;5026677;28;20022;-59
2022/05/05 11:33:28;;;;;;;1.70;1.60;;;;;;;11.35;93.63;96123.19;5021077;28;20056;-60
2022/05/05 11:35:56;;;;;;;1.80;1.70;;;;;;;11.37;95.24;96109.88;5016709;28;20026;-59
2022/05/05 11:38:23;;;;;;;1.80;1.70;;;;;;;11.25;97.16;96109.19;5020466;28;20029;-59
2022/05/05 11:40:48;;;;;;;2.97;1.70;;;;;;;11.50;95.04;96109.63;5022590;28;20075;-59
2022/05/05 11:45:59;;;;;;;3.58;2.17;;;;;;;11.30;96.59;96110.44;5016455;28;20168;-60
2022/05/05 11:48:25;;;;;;;5.03;1.65;;;;;;;11.37;96.73;96110.69;5016272;28;20575;-60
2022/05/05 11:50:50;;;;;;;1.98;1.80;;;;;;;11.36;97.97;96116.13;5026220;28;20113;-59
2022/05/05 11:53:17;;;;;;;1.70;1.60;;;;;;;11.37;97.92;96109.88;5020333;28;20030;-59
2022/05/05 11:55:48;;;;;;;1.92;1.83;;;;;;;11.30;97.44;96112.22;5018419;28;20033;-59
2022/05/05 12:04:00;;;;;;;6.07;1.90;;;;;;;11.35;96.83;96123.19;5020967;28;20113;-60
2022/05/05 12:06:27;;;;;;;1.85;1.75;;;;;;;11.21;98.27;96115.69;5017415;28;20033;-59
2022/05/05 12:08:53;;;;;;;1.60;1.50;;;;;;;11.21;98.44;96110.41;5018601;28;20026;-59
2022/05/05 12:11:18;;;;;;;2.25;1.88;;;;;;;11.01;95.96;96115.63;5025389;28;20025;-59
2022/05/05 12:13:44;;;;;;;2.17;1.65;;;;;;;10.97;97.64;96117.69;5022458;28;20029;-59
2022/05/05 12:16:10;;;;;;;2.10;2.00;;;;;;;10.94;97.54;96120.59;5016050;28;20096;-59